sensor_id;sensor_type;location;lat;lon;timestamp;pressure;altitude;pressure_sealevel;temperature;humidity
24302;BME280;12421;49.732;20.078;2022-09-06T00:04:25;97524.47;;;11.62;76.65
24302;BME280;12421;49.732;20.078;2022-09-06T00:14:27;97524.58;;;11.37;76.71
24302;BME280;12421;49.732;20.078;2022-09-06T00:24:29;97519.89;;;11.01;76.99
24302;BME280;12421;49.732;20.078;2022-09-06T00:34:31;97528.73;;;10.75;77.81
24302;BME280;12421;49.732;20.078;2022-09-06T00:44:33;97519.98;;;10.71;77.92
24302;BME280;12421;49.732;20.078;2022-09-06T00:54:35;97525.23;;;10.68;78.58
24302;BME280;12421;49.732;20.078;2022-09-06T01:04:40;97517.77;;;10.72;78.58
24302;BME280;12421;49.732;20.078;2022-09-06T01:25:40;97509.36;;;10.98;78.18
24302;BME280;12421;49.732;20.078;2022-09-06T01:35:59;97520.83;;;10.84;78.33
24302;BME280;12421;49.732;20.078;2022-09-06T01:46:14;97518.64;;;10.68;78.20
24302;BME280;12421;49.732;20.078;2022-09-06T01:56:40;97491.94;;;10.40;78.36
24302;BME280;12421;49.732;20.078;2022-09-06T02:06:52;97491.94;;;10.40;78.36
24302;BME280;12421;49.732;20.078;2022-09-06T02:16:56;97525.70;;;10.39;78.22
24302;BME280;12421;49.732;20.078;2022-09-06T02:26:58;97528.34;;;10.39;78.50
24302;BME280;12421;49.732;20.078;2022-09-06T02:37:00;97513.44;;;10.34;78.64
24302;BME280;12421;49.732;20.078;2022-09-06T02:47:03;97505.53;;;10.22;78.63
24302;BME280;12421;49.732;20.078;2022-09-06T02:57:06;97506.84;;;10.26;79.28
24302;BME280;12421;49.732;20.078;2022-09-06T03:07:08;97506.41;;;10.28;79.56
24302;BME280;12421;49.732;20.078;2022-09-06T03:17:10;97502.45;;;10.13;79.93
24302;BME280;12421;49.732;20.078;2022-09-06T03:27:12;97487.97;;;10.31;80.37
24302;BME280;12421;49.732;20.078;2022-09-06T03:37:14;97479.22;;;10.32;80.37
24302;BME280;12421;49.732;20.078;2022-09-06T03:47:16;97477.87;;;10.44;80.24
24302;BME280;12421;49.732;20.078;2022-09-06T03:57:18;97487.07;;;10.58;80.23
24302;BME280;12421;49.732;20.078;2022-09-06T04:07:23;97489.22;;;10.72;80.02
24302;BME280;12421;49.732;20.078;2022-09-06T04:17:25;97476.45;;;10.92;79.91
24302;BME280;12421;49.732;20.078;2022-09-06T04:27:28;97479.46;;;11.02;79.52
24302;BME280;12421;49.732;20.078;2022-09-06T04:37:31;97472.89;;;11.05;79.39
24302;BME280;12421;49.732;20.078;2022-09-06T04:47:33;97473.23;;;11.18;79.55
24302;BME280;12421;49.732;20.078;2022-09-06T04:57:35;97472.31;;;11.29;79.36
24302;BME280;12421;49.732;20.078;2022-09-06T05:07:37;97472.27;;;11.41;79.28
24302;BME280;12421;49.732;20.078;2022-09-06T05:17:39;97474.38;;;11.55;79.05
24302;BME280;12421;49.732;20.078;2022-09-06T05:27:41;97473.80;;;11.81;79.67
24302;BME280;12421;49.732;20.078;2022-09-06T05:37:43;97477.04;;;12.19;78.73
24302;BME280;12421;49.732;20.078;2022-09-06T05:47:45;97481.13;;;12.50;78.01
24302;BME280;12421;49.732;20.078;2022-09-06T05:57:48;97482.81;;;13.02;77.80
24302;BME280;12421;49.732;20.078;2022-09-06T06:07:50;97478.86;;;13.68;76.52
24302;BME280;12421;49.732;20.078;2022-09-06T06:17:52;97481.54;;;14.26;75.83
24302;BME280;12421;49.732;20.078;2022-09-06T06:27:54;97478.25;;;14.86;75.37
24302;BME280;12421;49.732;20.078;2022-09-06T06:37:56;97478.67;;;15.74;72.82
24302;BME280;12421;49.732;20.078;2022-09-06T06:47:58;97473.78;;;16.30;72.70
24302;BME280;12421;49.732;20.078;2022-09-06T06:58:01;97467.64;;;16.96;71.15
24302;BME280;12421;49.732;20.078;2022-09-06T07:08:05;97463.75;;;17.39;70.40
24302;BME280;12421;49.732;20.078;2022-09-06T07:18:08;97468.82;;;17.92;69.90
24302;BME280;12421;49.732;20.078;2022-09-06T07:28:10;97470.91;;;18.10;67.20
24302;BME280;12421;49.732;20.078;2022-09-06T07:38:12;97485.19;;;18.08;63.75
24302;BME280;12421;49.732;20.078;2022-09-06T07:48:15;97488.51;;;18.01;63.98
24302;BME280;12421;49.732;20.078;2022-09-06T07:58:16;97487.07;;;18.72;62.17
24302;BME280;12421;49.732;20.078;2022-09-06T08:08:18;97479.87;;;19.00;62.40
24302;BME280;12421;49.732;20.078;2022-09-06T08:18:21;97475.47;;;19.37;60.55
24302;BME280;12421;49.732;20.078;2022-09-06T08:28:23;97478.89;;;19.64;59.86
24302;BME280;12421;49.732;20.078;2022-09-06T08:38:26;97468.78;;;19.72;57.70
24302;BME280;12421;49.732;20.078;2022-09-06T08:48:31;97468.14;;;19.88;57.38
24302;BME280;12421;49.732;20.078;2022-09-06T08:58:58;97464.52;;;19.89;56.90
24302;BME280;12421;49.732;20.078;2022-09-06T09:09:12;97464.69;;;20.08;56.95
24302;BME280;12421;49.732;20.078;2022-09-06T09:19:15;97468.03;;;20.68;56.01
24302;BME280;12421;49.732;20.078;2022-09-06T09:29:17;97441.23;;;21.09;55.77
24302;BME280;12421;49.732;20.078;2022-09-06T09:39:20;97442.56;;;21.68;53.01
24302;BME280;12421;49.732;20.078;2022-09-06T09:59:48;97427.57;;;22.11;49.44
24302;BME280;12421;49.732;20.078;2022-09-06T10:10:03;97420.29;;;22.05;49.80
24302;BME280;12421;49.732;20.078;2022-09-06T10:20:11;97420.21;;;22.06;47.78
24302;BME280;12421;49.732;20.078;2022-09-06T10:30:13;97407.02;;;21.83;49.04
24302;BME280;12421;49.732;20.078;2022-09-06T10:40:35;97390.97;;;21.44;50.28
24302;BME280;12421;49.732;20.078;2022-09-06T10:50:57;97390.97;;;21.44;50.28
24302;BME280;12421;49.732;20.078;2022-09-06T11:01:14;97389.96;;;21.08;50.32
24302;BME280;12421;49.732;20.078;2022-09-06T11:11:22;97393.95;;;20.88;50.87
24302;BME280;12421;49.732;20.078;2022-09-06T11:21:44;97375.20;;;20.88;51.58
24302;BME280;12421;49.732;20.078;2022-09-06T11:31:57;97380.87;;;21.02;52.62
24302;BME280;12421;49.732;20.078;2022-09-06T11:42:09;97370.28;;;21.38;51.75
24302;BME280;12421;49.732;20.078;2022-09-06T12:02:58;97347.67;;;21.99;48.83
24302;BME280;12421;49.732;20.078;2022-09-06T12:13:00;97348.94;;;22.01;47.88
24302;BME280;12421;49.732;20.078;2022-09-06T12:23:02;97336.31;;;21.75;47.63
24302;BME280;12421;49.732;20.078;2022-09-06T12:33:16;97329.69;;;21.55;48.72
24302;BME280;12421;49.732;20.078;2022-09-06T12:43:21;97316.52;;;21.59;48.61
24302;BME280;12421;49.732;20.078;2022-09-06T12:53:23;97309.36;;;21.60;48.65
24302;BME280;12421;49.732;20.078;2022-09-06T13:03:38;97316.97;;;21.50;48.74
24302;BME280;12421;49.732;20.078;2022-09-06T13:13:48;97300.45;;;21.22;49.15
24302;BME280;12421;49.732;20.078;2022-09-06T13:23:54;97303.87;;;21.07;49.76
24302;BME280;12421;49.732;20.078;2022-09-06T13:33:58;97308.73;;;21.36;49.19
24302;BME280;12421;49.732;20.078;2022-09-06T13:54:14;97287.53;;;21.59;49.25
24302;BME280;12421;49.732;20.078;2022-09-06T14:04:19;97277.50;;;21.35;49.32
24302;BME280;12421;49.732;20.078;2022-09-06T14:14:21;97258.89;;;21.32;50.57
24302;BME280;12421;49.732;20.078;2022-09-06T14:24:24;97259.56;;;21.73;50.28
24302;BME280;12421;49.732;20.078;2022-09-06T14:34:27;97257.55;;;21.59;49.37
24302;BME280;12421;49.732;20.078;2022-09-06T14:44:30;97247.78;;;21.58;49.00
24302;BME280;12421;49.732;20.078;2022-09-06T14:54:32;97236.92;;;21.34;49.59
24302;BME280;12421;49.732;20.078;2022-09-06T15:04:35;97242.44;;;21.31;50.05
24302;BME280;12421;49.732;20.078;2022-09-06T15:14:37;97243.42;;;21.47;49.62
24302;BME280;12421;49.732;20.078;2022-09-06T15:24:41;97227.94;;;21.62;49.06
24302;BME280;12421;49.732;20.078;2022-09-06T15:34:43;97228.70;;;21.64;49.13
24302;BME280;12421;49.732;20.078;2022-09-06T15:44:46;97218.66;;;21.42;48.28
24302;BME280;12421;49.732;20.078;2022-09-06T15:54:49;97231.05;;;20.99;49.30
24302;BME280;12421;49.732;20.078;2022-09-06T16:05:11;97223.11;;;20.49;49.74
24302;BME280;12421;49.732;20.078;2022-09-06T16:15:13;97228.98;;;20.07;50.87
24302;BME280;12421;49.732;20.078;2022-09-06T16:25:15;97219.31;;;19.83;52.58
24302;BME280;12421;49.732;20.078;2022-09-06T16:35:18;97202.86;;;19.52;53.38
24302;BME280;12421;49.732;20.078;2022-09-06T16:45:20;97209.78;;;19.12;56.28
24302;BME280;12421;49.732;20.078;2022-09-06T16:55:22;97217.75;;;18.56;57.38
24302;BME280;12421;49.732;20.078;2022-09-06T17:05:25;97217.36;;;18.06;59.65
24302;BME280;12421;49.732;20.078;2022-09-06T17:15:27;97211.96;;;17.58;60.98
24302;BME280;12421;49.732;20.078;2022-09-06T17:25:31;97196.89;;;17.17;62.32
24302;BME280;12421;49.732;20.078;2022-09-06T17:35:34;97209.02;;;16.85;63.93
24302;BME280;12421;49.732;20.078;2022-09-06T17:45:41;97205.88;;;16.41;65.13
24302;BME280;12421;49.732;20.078;2022-09-06T17:55:43;97213.25;;;16.01;66.00
24302;BME280;12421;49.732;20.078;2022-09-06T18:05:45;97228.17;;;15.73;67.58
24302;BME280;12421;49.732;20.078;2022-09-06T18:15:47;97234.67;;;15.62;68.48
24302;BME280;12421;49.732;20.078;2022-09-06T18:26:03;97237.97;;;15.54;68.26
24302;BME280;12421;49.732;20.078;2022-09-06T18:36:07;97237.66;;;15.50;69.20
24302;BME280;12421;49.732;20.078;2022-09-06T18:46:11;97228.37;;;15.48;69.27
24302;BME280;12421;49.732;20.078;2022-09-06T18:56:14;97230.38;;;15.39;69.48
24302;BME280;12421;49.732;20.078;2022-09-06T19:06:19;97236.42;;;15.26;69.65
24302;BME280;12421;49.732;20.078;2022-09-06T19:16:22;97222.11;;;15.15;70.02
24302;BME280;12421;49.732;20.078;2022-09-06T19:26:28;97224.75;;;14.96;70.17
24302;BME280;12421;49.732;20.078;2022-09-06T19:36:32;97232.05;;;14.68;70.56
24302;BME280;12421;49.732;20.078;2022-09-06T19:46:35;97212.88;;;14.35;71.24
24302;BME280;12421;49.732;20.078;2022-09-06T19:56:38;97201.39;;;13.91;71.82
24302;BME280;12421;49.732;20.078;2022-09-06T20:06:40;97203.39;;;13.55;72.17
24302;BME280;12421;49.732;20.078;2022-09-06T20:16:42;97190.03;;;13.14;72.85
24302;BME280;12421;49.732;20.078;2022-09-06T20:26:44;97185.58;;;12.88;73.29
24302;BME280;12421;49.732;20.078;2022-09-06T20:36:47;97193.23;;;12.47;73.47
24302;BME280;12421;49.732;20.078;2022-09-06T20:46:49;97201.49;;;12.23;73.97
24302;BME280;12421;49.732;20.078;2022-09-06T20:56:51;97199.92;;;12.08;74.29
24302;BME280;12421;49.732;20.078;2022-09-06T21:06:54;97198.53;;;11.77;74.45
24302;BME280;12421;49.732;20.078;2022-09-06T21:16:56;97204.39;;;11.65;74.53
24302;BME280;12421;49.732;20.078;2022-09-06T21:26:58;97205.53;;;11.35;74.97
24302;BME280;12421;49.732;20.078;2022-09-06T21:37:01;97196.61;;;11.03;75.16
24302;BME280;12421;49.732;20.078;2022-09-06T21:47:03;97193.61;;;10.93;75.87
24302;BME280;12421;49.732;20.078;2022-09-06T21:57:06;97194.83;;;11.04;75.88
24302;BME280;12421;49.732;20.078;2022-09-06T22:07:09;97193.13;;;10.98;76.20
24302;BME280;12421;49.732;20.078;2022-09-06T22:17:12;97186.00;;;11.09;76.46
24302;BME280;12421;49.732;20.078;2022-09-06T22:27:14;97168.50;;;11.01;76.06
24302;BME280;12421;49.732;20.078;2022-09-06T22:37:16;97166.51;;;10.76;76.05
24302;BME280;12421;49.732;20.078;2022-09-06T22:47:19;97161.85;;;10.56;76.67
24302;BME280;12421;49.732;20.078;2022-09-06T22:57:21;97149.25;;;10.36;76.70
24302;BME280;12421;49.732;20.078;2022-09-06T23:07:24;97155.45;;;10.26;76.90
24302;BME280;12421;49.732;20.078;2022-09-06T23:17:27;97152.42;;;10.22;76.98
24302;BME280;12421;49.732;20.078;2022-09-06T23:27:29;97148.96;;;10.05;77.01
24302;BME280;12421;49.732;20.078;2022-09-06T23:37:31;97146.41;;;9.93;77.01
24302;BME280;12421;49.732;20.078;2022-09-06T23:47:33;97146.06;;;9.75;78.03
24302;BME280;12421;49.732;20.078;2022-09-06T23:57:36;97138.61;;;9.73;78.13
